createdAt,value
2019-05-07T00:02:14.650Z,10.38
2019-05-07T00:07:22.391Z,9.45
2019-05-07T00:12:29.134Z,7.45
2019-05-07T00:17:35.706Z,6.95
2019-05-07T00:22:42.259Z,7.92
2019-05-07T00:27:48.816Z,8.10
2019-05-07T00:32:55.424Z,11.10
2019-05-07T00:38:06.378Z,8.28
2019-05-07T00:43:22.704Z,8.75
2019-05-07T00:48:28.980Z,6.65
2019-05-07T00:53:35.607Z,6.83
2019-05-07T00:58:43.752Z,8.58
2019-05-07T01:03:50.599Z,9.68
2019-05-07T01:08:57.249Z,11.75
2019-05-07T01:14:05.834Z,7.33
2019-05-07T01:19:12.686Z,9.20
2019-05-07T01:24:19.280Z,10.10
2019-05-07T01:29:25.752Z,11.50
2019-05-07T01:34:44.359Z,10.60
2019-05-07T01:39:52.938Z,8.28
2019-05-07T01:44:59.088Z,10.13
2019-05-07T01:50:06.035Z,12.78
2019-05-07T01:55:13.016Z,10.82
2019-05-07T02:00:19.810Z,10.20
2019-05-07T02:05:45.266Z,16.48
2019-05-07T02:11:02.066Z,16.12
2019-05-07T02:16:08.420Z,15.43
2019-05-07T02:21:15.048Z,14.13
2019-05-07T02:26:22.586Z,12.93
2019-05-07T02:31:32.942Z,14.07
2019-05-07T02:36:38.796Z,15.53
2019-05-07T02:41:45.454Z,16.40
2019-05-07T02:47:04.310Z,13.08
2019-05-07T02:52:22.933Z,16.10
2019-05-07T02:57:29.925Z,17.48
2019-05-07T03:02:36.685Z,15.83
2019-05-07T03:07:43.439Z,17.05
2019-05-07T03:12:50.048Z,17.00
2019-05-07T03:17:56.695Z,15.88
2019-05-07T03:23:04.468Z,14.98
2019-05-07T03:28:13.597Z,15.35
2019-05-07T03:33:36.582Z,17.42
2019-05-07T03:38:43.930Z,14.63
2019-05-07T03:43:58.686Z,16.52
2019-05-07T03:49:05.320Z,14.10
2019-05-07T03:54:14.466Z,15.78
2019-05-07T03:59:22.839Z,17.87
2019-05-07T04:04:28.551Z,14.87
2019-05-07T04:09:35.102Z,17.05
2019-05-07T04:14:43.255Z,17.52
2019-05-07T04:19:52.987Z,17.60
2019-05-07T04:25:24.183Z,16.62
2019-05-07T04:30:33.056Z,13.38
2019-05-07T04:35:48.178Z,19.87
2019-05-07T04:40:54.779Z,18.20
2019-05-07T04:46:03.255Z,15.58
2019-05-07T04:51:12.669Z,16.35
2019-05-07T04:56:19.253Z,15.65
2019-05-07T05:01:27.507Z,19.75
2019-05-07T05:06:34.045Z,20.52
2019-05-07T05:11:43.657Z,19.85
2019-05-07T05:16:48.929Z,13.65
2019-05-07T05:22:05.758Z,16.30
2019-05-07T05:27:12.398Z,15.15
2019-05-07T05:32:18.988Z,17.07
2019-05-07T05:37:25.564Z,15.65
2019-05-07T05:42:39.163Z,14.23
2019-05-07T05:47:45.800Z,16.55
2019-05-07T05:52:57.348Z,14.00
2019-05-07T05:58:15.097Z,14.03
2019-05-07T06:03:33.365Z,15.55
2019-05-07T06:08:58.895Z,17.20
2019-05-07T06:14:17.724Z,18.37
2019-05-07T06:19:33.471Z,16.48
2019-05-07T06:24:56.103Z,15.13
2019-05-07T06:30:04.808Z,16.65
2019-05-07T06:35:12.308Z,15.60
2019-05-07T06:40:46.801Z,21.55
2019-05-07T06:45:55.615Z,17.42
2019-05-07T06:51:03.090Z,18.48
2019-05-07T06:56:12.056Z,19.98
2019-05-07T07:01:26.248Z,18.67
2019-05-07T07:06:52.497Z,24.90
2019-05-07T07:12:02.505Z,24.75
2019-05-07T07:17:12.922Z,20.40
2019-05-07T07:22:22.144Z,25.60
2019-05-07T07:27:28.120Z,23.42
2019-05-07T07:32:38.075Z,26.00
2019-05-07T07:37:44.699Z,25.20
2019-05-07T07:42:52.038Z,27.02
2019-05-07T07:48:02.064Z,26.23
2019-05-07T07:53:08.204Z,22.35
2019-05-07T07:58:37.715Z,27.60
2019-05-07T08:03:44.348Z,29.20
2019-05-07T08:08:52.927Z,27.32
2019-05-07T08:13:59.311Z,30.65
2019-05-07T08:19:18.279Z,28.98
2019-05-07T08:24:14.310Z,29.48
2019-05-07T08:29:22.476Z,31.52
2019-05-07T08:34:34.489Z,30.97
2019-05-07T08:39:42.914Z,30.08
2019-05-07T08:44:56.460Z,28.52
2019-05-07T08:50:03.622Z,30.80
2019-05-07T08:55:12.496Z,31.37
2019-05-07T09:00:22.309Z,29.65
2019-05-07T09:05:29.047Z,30.23
2019-05-07T09:10:35.717Z,31.90
2019-05-07T09:15:42.576Z,31.87
2019-05-07T09:20:49.266Z,30.92
2019-05-07T09:25:56.087Z,29.10
2019-05-07T09:31:17.071Z,26.48
2019-05-07T09:36:29.490Z,29.77
2019-05-07T09:41:36.220Z,26.37
2019-05-07T09:46:44.012Z,23.42
2019-05-07T09:51:51.998Z,23.38
2019-05-07T09:56:58.944Z,28.27
2019-05-07T10:02:05.929Z,26.75
2019-05-07T10:07:12.752Z,25.08
2019-05-07T10:12:42.046Z,25.10
2019-05-07T10:17:56.588Z,24.50
2019-05-07T10:23:03.601Z,21.70
2019-05-07T10:28:12.398Z,28.95
2019-05-07T10:33:18.873Z,24.87
2019-05-07T10:38:25.612Z,19.15
2019-05-07T10:43:33.453Z,21.65
2019-05-07T10:48:51.415Z,19.48
2019-05-07T10:53:58.953Z,21.02
2019-05-07T10:59:05.877Z,19.05
2019-05-07T11:04:12.883Z,19.55
2019-05-07T11:09:19.648Z,15.65
2019-05-07T11:14:26.214Z,16.37
2019-05-07T11:19:32.808Z,15.05
2019-05-07T11:24:39.455Z,16.20
2019-05-07T11:29:46.100Z,12.55
2019-05-07T11:34:54.796Z,18.12
2019-05-07T11:40:03.134Z,12.58
2019-05-07T11:45:14.971Z,13.62
2019-05-07T11:50:36.602Z,11.57
2019-05-07T11:55:43.112Z,12.68
2019-05-07T12:01:14.918Z,14.38
2019-05-07T12:06:21.713Z,12.55
2019-05-07T12:11:28.487Z,14.60
2019-05-07T12:16:35.138Z,14.68
2019-05-07T12:21:42.227Z,12.63
2019-05-07T12:26:49.033Z,12.65
2019-05-07T12:32:09.443Z,17.60
2019-05-07T12:37:15.948Z,12.07
2019-05-07T12:42:22.598Z,14.33
2019-05-07T12:47:29.332Z,12.43
2019-05-07T12:52:42.623Z,11.63
2019-05-07T12:57:49.288Z,13.25
2019-05-07T13:03:13.644Z,12.20
2019-05-07T13:08:22.828Z,15.50
2019-05-07T13:13:28.911Z,14.33
2019-05-07T13:18:35.503Z,14.30
2019-05-07T13:23:42.276Z,12.40
2019-05-07T13:28:49.094Z,10.80
2019-05-07T13:33:58.658Z,12.33
2019-05-07T13:39:18.855Z,12.15
2019-05-07T13:44:48.296Z,11.10
2019-05-07T13:49:55.749Z,13.35
2019-05-07T13:55:02.493Z,12.55
2019-05-07T14:00:21.885Z,11.35
2019-05-07T14:05:34.786Z,11.33
2019-05-07T14:10:42.514Z,8.70
2019-05-07T14:16:08.765Z,9.03
2019-05-07T14:21:15.384Z,12.50
2019-05-07T14:26:23.854Z,10.78
2019-05-07T14:31:33.497Z,11.28
2019-05-07T14:36:44.422Z,8.83
2019-05-07T14:41:52.641Z,6.85
2019-05-07T14:46:59.610Z,9.28
2019-05-07T14:52:06.262Z,10.90
2019-05-07T14:57:12.934Z,12.80
2019-05-07T15:02:19.537Z,10.68
2019-05-07T15:07:26.196Z,33.42
2019-05-07T15:12:33.136Z,12.23
2019-05-07T15:17:54.313Z,18.05
2019-05-07T15:23:06.366Z,21.25
2019-05-07T15:28:13.316Z,23.50
2019-05-07T15:33:21.677Z,11.40
2019-05-07T15:38:28.663Z,11.43
2019-05-07T15:43:35.415Z,12.20
2019-05-07T15:48:42.097Z,11.70
2019-05-07T15:53:52.376Z,13.13
2019-05-07T15:58:59.049Z,11.75
2019-05-07T16:04:18.286Z,10.05
2019-05-07T16:09:14.094Z,10.40
2019-05-07T16:14:26.847Z,9.53
2019-05-07T16:19:33.754Z,13.58
2019-05-07T16:24:40.385Z,11.22
2019-05-07T16:29:46.860Z,11.88
2019-05-07T16:34:53.420Z,12.78
2019-05-07T16:40:01.618Z,11.25
2019-05-07T16:45:10.182Z,11.97
2019-05-07T16:50:17.614Z,11.28
2019-05-07T16:55:26.412Z,13.53
2019-05-07T17:00:37.922Z,11.18
2019-05-07T17:05:44.462Z,12.93
2019-05-07T17:10:52.381Z,10.68
2019-05-07T17:16:00.052Z,16.62
2019-05-07T17:21:06.839Z,16.30
2019-05-07T17:26:13.499Z,11.35
2019-05-07T17:31:22.929Z,11.78
2019-05-07T17:36:29.622Z,11.75
2019-05-07T17:41:36.268Z,11.47
2019-05-07T17:46:43.836Z,11.55
2019-05-07T17:51:52.645Z,16.07
2019-05-07T17:57:01.826Z,13.05
2019-05-07T18:02:22.022Z,12.68
2019-05-07T18:07:28.856Z,11.33
2019-05-07T18:12:35.413Z,13.88
2019-05-07T18:17:50.045Z,11.48
2019-05-07T18:22:56.820Z,12.55
2019-05-07T18:28:03.434Z,10.35
2019-05-07T18:33:24.034Z,11.35
2019-05-07T18:38:32.738Z,12.23
2019-05-07T18:43:38.869Z,13.38
2019-05-07T18:48:45.464Z,14.25
2019-05-07T18:53:52.035Z,14.75
2019-05-07T18:58:58.612Z,12.75
2019-05-07T19:04:05.577Z,13.83
2019-05-07T19:09:12.198Z,15.58
2019-05-07T19:14:19.032Z,14.65
2019-05-07T19:19:25.673Z,16.50
2019-05-07T19:24:44.325Z,14.33
2019-05-07T19:29:43.364Z,16.02
2019-05-07T19:34:49.030Z,13.00
2019-05-07T19:39:55.706Z,15.05
2019-05-07T19:45:02.741Z,14.15
2019-05-07T19:50:12.575Z,12.88
2019-05-07T19:55:21.832Z,13.03
2019-05-07T20:00:28.453Z,13.55
2019-05-07T20:05:37.345Z,14.43
2019-05-07T20:11:04.047Z,16.80
2019-05-07T20:16:14.577Z,16.37
2019-05-07T20:21:22.904Z,20.57
2019-05-07T20:26:32.098Z,16.85
2019-05-07T20:31:38.239Z,18.92
2019-05-07T20:36:44.878Z,20.90
2019-05-07T20:41:52.630Z,19.37
2019-05-07T20:47:01.708Z,20.72
2019-05-07T20:52:07.989Z,18.35
2019-05-07T20:57:17.256Z,19.10
2019-05-07T21:02:23.984Z,19.02
2019-05-07T21:07:32.677Z,19.65
2019-05-07T21:12:38.875Z,18.07
2019-05-07T21:17:45.567Z,19.70
2019-05-07T21:22:52.210Z,17.75
2019-05-07T21:27:58.747Z,17.35
2019-05-07T21:33:05.872Z,16.85
2019-05-07T21:38:12.740Z,16.97
2019-05-07T21:43:21.904Z,16.27
2019-05-07T21:48:27.762Z,18.77
2019-05-07T21:53:44.453Z,18.77
2019-05-07T21:59:02.856Z,16.50
2019-05-07T22:04:08.945Z,18.77
2019-05-07T22:09:15.508Z,15.83
2019-05-07T22:14:22.447Z,17.30
2019-05-07T22:19:29.213Z,18.60
2019-05-07T22:24:35.887Z,16.25
2019-05-07T22:29:42.634Z,18.73
2019-05-07T22:34:57.356Z,16.10
2019-05-07T22:40:05.982Z,15.78
2019-05-07T22:45:14.313Z,15.45
2019-05-07T22:50:22.536Z,18.17
2019-05-07T22:55:29.311Z,15.98
2019-05-07T23:00:43.039Z,15.98
2019-05-07T23:10:55.235Z,17.65
2019-05-07T23:16:02.654Z,14.78
2019-05-07T23:21:09.739Z,16.37
2019-05-07T23:26:16.306Z,16.12
2019-05-07T23:31:23.042Z,17.80
2019-05-07T23:36:29.605Z,16.17
2019-05-07T23:41:42.580Z,17.15
2019-05-07T23:46:49.228Z,18.17
2019-05-07T23:51:55.942Z,17.25
2019-05-07T23:57:06.870Z,15.72
